sensor_id;sensor_type;location;lat;lon;timestamp;P1;durP1;ratioP1;P2;durP2;ratioP2
36321;SDS011;23564;48.290;11.460;2024-01-15T00:01:55;20.45;;;8.93;;
36321;SDS011;23564;48.290;11.460;2024-01-15T00:04:21;20.92;;;8.63;;
36321;SDS011;23564;48.290;11.460;2024-01-15T00:06:47;17.92;;;7.75;;
36321;SDS011;23564;48.290;11.460;2024-01-15T00:09:12;18.30;;;7.68;;
36321;SDS011;23564;48.290;11.460;2024-01-15T00:11:38;20.92;;;7.63;;
36321;SDS011;23564;48.290;11.460;2024-01-15T00:14:03;20.85;;;8.50;;
36321;SDS011;23564;48.290;11.460;2024-01-15T00:16:29;18.13;;;8.95;;
36321;SDS011;23564;48.290;11.460;2024-01-15T00:18:54;23.88;;;9.88;;
36321;SDS011;23564;48.290;11.460;2024-01-15T00:21:20;21.95;;;9.25;;
36321;SDS011;23564;48.290;11.460;2024-01-15T00:23:45;21.42;;;9.43;;
36321;SDS011;23564;48.290;11.460;2024-01-15T00:26:11;21.08;;;9.70;;
36321;SDS011;23564;48.290;11.460;2024-01-15T00:28:37;29.67;;;11.65;;
36321;SDS011;23564;48.290;11.460;2024-01-15T00:31:03;26.08;;;11.00;;
36321;SDS011;23564;48.290;11.460;2024-01-15T00:33:30;32.30;;;12.68;;
36321;SDS011;23564;48.290;11.460;2024-01-15T00:35:55;29.80;;;12.38;;
36321;SDS011;23564;48.290;11.460;2024-01-15T00:38:21;29.05;;;11.63;;
36321;SDS011;23564;48.290;11.460;2024-01-15T00:40:46;31.92;;;12.93;;
36321;SDS011;23564;48.290;11.460;2024-01-15T00:43:12;31.45;;;12.25;;
36321;SDS011;23564;48.290;11.460;2024-01-15T00:45:38;28.42;;;12.65;;
36321;SDS011;23564;48.290;11.460;2024-01-15T00:48:03;27.15;;;12.38;;
36321;SDS011;23564;48.290;11.460;2024-01-15T00:50:29;30.48;;;11.15;;
36321;SDS011;23564;48.290;11.460;2024-01-15T00:52:55;27.23;;;10.98;;
36321;SDS011;23564;48.290;11.460;2024-01-15T00:55:20;27.73;;;11.38;;
36321;SDS011;23564;48.290;11.460;2024-01-15T00:57:46;26.15;;;11.15;;
36321;SDS011;23564;48.290;11.460;2024-01-15T01:00:12;32.33;;;11.52;;
36321;SDS011;23564;48.290;11.460;2024-01-15T01:02:38;30.48;;;10.75;;
36321;SDS011;23564;48.290;11.460;2024-01-15T01:05:03;27.25;;;10.88;;
36321;SDS011;23564;48.290;11.460;2024-01-15T01:07:29;31.60;;;11.60;;
36321;SDS011;23564;48.290;11.460;2024-01-15T01:09:55;29.45;;;11.40;;
36321;SDS011;23564;48.290;11.460;2024-01-15T01:12:20;26.95;;;10.73;;
36321;SDS011;23564;48.290;11.460;2024-01-15T01:14:46;27.25;;;10.30;;
36321;SDS011;23564;48.290;11.460;2024-01-15T01:17:11;31.02;;;11.65;;
36321;SDS011;23564;48.290;11.460;2024-01-15T01:19:37;26.02;;;10.50;;
36321;SDS011;23564;48.290;11.460;2024-01-15T01:22:03;24.67;;;9.63;;
36321;SDS011;23564;48.290;11.460;2024-01-15T01:24:28;25.15;;;10.13;;
36321;SDS011;23564;48.290;11.460;2024-01-15T01:26:54;28.42;;;10.85;;
36321;SDS011;23564;48.290;11.460;2024-01-15T01:29:19;29.58;;;10.93;;
36321;SDS011;23564;48.290;11.460;2024-01-15T01:31:45;30.30;;;10.95;;
36321;SDS011;23564;48.290;11.460;2024-01-15T01:34:13;28.77;;;10.43;;
36321;SDS011;23564;48.290;11.460;2024-01-15T01:36:39;25.38;;;10.07;;
36321;SDS011;23564;48.290;11.460;2024-01-15T01:39:04;25.75;;;9.23;;
36321;SDS011;23564;48.290;11.460;2024-01-15T01:41:30;23.20;;;10.20;;
36321;SDS011;23564;48.290;11.460;2024-01-15T01:43:56;27.40;;;9.57;;
36321;SDS011;23564;48.290;11.460;2024-01-15T01:46:22;25.70;;;9.35;;
36321;SDS011;23564;48.290;11.460;2024-01-15T01:48:48;24.73;;;9.75;;
36321;SDS011;23564;48.290;11.460;2024-01-15T01:51:14;23.17;;;9.68;;
36321;SDS011;23564;48.290;11.460;2024-01-15T01:53:40;21.70;;;8.68;;
36321;SDS011;23564;48.290;11.460;2024-01-15T01:56:06;29.58;;;9.57;;
36321;SDS011;23564;48.290;11.460;2024-01-15T01:58:32;25.45;;;9.75;;
36321;SDS011;23564;48.290;11.460;2024-01-15T02:00:58;27.35;;;10.07;;
36321;SDS011;23564;48.290;11.460;2024-01-15T02:03:25;23.33;;;9.95;;
36321;SDS011;23564;48.290;11.460;2024-01-15T02:05:52;22.50;;;8.85;;
36321;SDS011;23564;48.290;11.460;2024-01-15T02:08:18;24.05;;;10.02;;
36321;SDS011;23564;48.290;11.460;2024-01-15T02:10:44;22.52;;;9.90;;
36321;SDS011;23564;48.290;11.460;2024-01-15T02:13:09;21.25;;;9.15;;
36321;SDS011;23564;48.290;11.460;2024-01-15T02:15:35;28.08;;;8.80;;
36321;SDS011;23564;48.290;11.460;2024-01-15T02:18:04;20.58;;;8.20;;
36321;SDS011;23564;48.290;11.460;2024-01-15T02:20:32;24.20;;;9.75;;
36321;SDS011;23564;48.290;11.460;2024-01-15T02:23:03;27.42;;;10.00;;
36321;SDS011;23564;48.290;11.460;2024-01-15T02:25:39;22.17;;;9.32;;
36321;SDS011;23564;48.290;11.460;2024-01-15T02:28:10;23.15;;;8.75;;
36321;SDS011;23564;48.290;11.460;2024-01-15T02:30:38;24.90;;;8.73;;
36321;SDS011;23564;48.290;11.460;2024-01-15T02:33:05;17.42;;;8.57;;
36321;SDS011;23564;48.290;11.460;2024-01-15T02:35:31;23.58;;;8.95;;
36321;SDS011;23564;48.290;11.460;2024-01-15T02:37:57;26.02;;;9.05;;
36321;SDS011;23564;48.290;11.460;2024-01-15T02:40:23;24.98;;;7.93;;
36321;SDS011;23564;48.290;11.460;2024-01-15T02:42:49;22.58;;;8.75;;
36321;SDS011;23564;48.290;11.460;2024-01-15T02:45:14;23.45;;;8.60;;
36321;SDS011;23564;48.290;11.460;2024-01-15T02:47:40;19.70;;;8.27;;
36321;SDS011;23564;48.290;11.460;2024-01-15T02:50:05;20.75;;;8.13;;
36321;SDS011;23564;48.290;11.460;2024-01-15T02:52:31;20.63;;;8.10;;
36321;SDS011;23564;48.290;11.460;2024-01-15T02:54:57;20.52;;;8.52;;
36321;SDS011;23564;48.290;11.460;2024-01-15T02:57:22;18.33;;;8.13;;
36321;SDS011;23564;48.290;11.460;2024-01-15T02:59:48;22.15;;;7.75;;
36321;SDS011;23564;48.290;11.460;2024-01-15T03:02:13;16.05;;;6.95;;
36321;SDS011;23564;48.290;11.460;2024-01-15T03:04:43;20.40;;;8.38;;
36321;SDS011;23564;48.290;11.460;2024-01-15T03:07:09;26.38;;;8.80;;
36321;SDS011;23564;48.290;11.460;2024-01-15T03:09:34;24.73;;;8.50;;
36321;SDS011;23564;48.290;11.460;2024-01-15T03:12:00;20.02;;;8.32;;
36321;SDS011;23564;48.290;11.460;2024-01-15T03:14:25;18.33;;;7.25;;
36321;SDS011;23564;48.290;11.460;2024-01-15T03:16:51;18.67;;;7.43;;
36321;SDS011;23564;48.290;11.460;2024-01-15T03:19:17;22.77;;;7.93;;
36321;SDS011;23564;48.290;11.460;2024-01-15T03:21:42;20.65;;;8.57;;
36321;SDS011;23564;48.290;11.460;2024-01-15T03:24:08;16.90;;;7.10;;
36321;SDS011;23564;48.290;11.460;2024-01-15T03:26:33;18.42;;;7.25;;
36321;SDS011;23564;48.290;11.460;2024-01-15T03:28:59;18.50;;;7.82;;
36321;SDS011;23564;48.290;11.460;2024-01-15T03:31:25;18.50;;;7.10;;
36321;SDS011;23564;48.290;11.460;2024-01-15T03:33:50;22.05;;;7.65;;
36321;SDS011;23564;48.290;11.460;2024-01-15T03:36:16;16.13;;;7.57;;
36321;SDS011;23564;48.290;11.460;2024-01-15T03:38:41;16.40;;;7.22;;
36321;SDS011;23564;48.290;11.460;2024-01-15T03:41:07;17.30;;;7.35;;
36321;SDS011;23564;48.290;11.460;2024-01-15T03:43:33;17.58;;;7.30;;
36321;SDS011;23564;48.290;11.460;2024-01-15T03:45:58;19.50;;;7.75;;
36321;SDS011;23564;48.290;11.460;2024-01-15T03:48:24;17.77;;;7.72;;
36321;SDS011;23564;48.290;11.460;2024-01-15T03:50:49;22.63;;;8.32;;
36321;SDS011;23564;48.290;11.460;2024-01-15T03:53:15;18.10;;;8.50;;
36321;SDS011;23564;48.290;11.460;2024-01-15T03:55:41;16.83;;;6.70;;
36321;SDS011;23564;48.290;11.460;2024-01-15T03:58:07;15.98;;;6.97;;
36321;SDS011;23564;48.290;11.460;2024-01-15T04:00:33;18.40;;;7.47;;
36321;SDS011;23564;48.290;11.460;2024-01-15T04:02:58;18.20;;;7.47;;
36321;SDS011;23564;48.290;11.460;2024-01-15T04:05:25;22.85;;;7.60;;
36321;SDS011;23564;48.290;11.460;2024-01-15T04:07:50;20.20;;;8.05;;
36321;SDS011;23564;48.290;11.460;2024-01-15T04:10:16;17.88;;;7.50;;
36321;SDS011;23564;48.290;11.460;2024-01-15T04:12:41;17.23;;;7.22;;
36321;SDS011;23564;48.290;11.460;2024-01-15T04:15:07;17.08;;;7.28;;
36321;SDS011;23564;48.290;11.460;2024-01-15T04:17:33;22.42;;;7.75;;
36321;SDS011;23564;48.290;11.460;2024-01-15T04:19:59;20.20;;;8.48;;
36321;SDS011;23564;48.290;11.460;2024-01-15T04:22:24;26.50;;;8.60;;
36321;SDS011;23564;48.290;11.460;2024-01-15T04:24:50;19.08;;;7.82;;
36321;SDS011;23564;48.290;11.460;2024-01-15T04:27:16;16.70;;;7.15;;
36321;SDS011;23564;48.290;11.460;2024-01-15T04:29:41;19.05;;;8.25;;
36321;SDS011;23564;48.290;11.460;2024-01-15T04:32:09;20.25;;;8.27;;
36321;SDS011;23564;48.290;11.460;2024-01-15T04:34:35;16.15;;;6.88;;
36321;SDS011;23564;48.290;11.460;2024-01-15T04:37:01;19.40;;;7.45;;
36321;SDS011;23564;48.290;11.460;2024-01-15T04:39:26;16.95;;;7.45;;
36321;SDS011;23564;48.290;11.460;2024-01-15T04:41:52;20.30;;;8.48;;
36321;SDS011;23564;48.290;11.460;2024-01-15T04:44:18;22.38;;;7.90;;
36321;SDS011;23564;48.290;11.460;2024-01-15T04:46:44;18.33;;;7.45;;
36321;SDS011;23564;48.290;11.460;2024-01-15T04:49:10;19.20;;;6.93;;
36321;SDS011;23564;48.290;11.460;2024-01-15T04:51:36;19.40;;;7.35;;
36321;SDS011;23564;48.290;11.460;2024-01-15T04:54:01;17.73;;;8.25;;
36321;SDS011;23564;48.290;11.460;2024-01-15T04:56:27;20.33;;;8.07;;
36321;SDS011;23564;48.290;11.460;2024-01-15T04:58:52;17.50;;;7.00;;
36321;SDS011;23564;48.290;11.460;2024-01-15T05:01:18;20.70;;;8.23;;
36321;SDS011;23564;48.290;11.460;2024-01-15T05:03:43;18.13;;;6.93;;
36321;SDS011;23564;48.290;11.460;2024-01-15T05:06:09;19.48;;;7.88;;
36321;SDS011;23564;48.290;11.460;2024-01-15T05:08:34;17.85;;;6.97;;
36321;SDS011;23564;48.290;11.460;2024-01-15T05:11:00;18.38;;;7.10;;
36321;SDS011;23564;48.290;11.460;2024-01-15T05:13:26;22.75;;;7.82;;
36321;SDS011;23564;48.290;11.460;2024-01-15T05:15:51;22.52;;;7.78;;
36321;SDS011;23564;48.290;11.460;2024-01-15T05:18:17;17.33;;;7.55;;
36321;SDS011;23564;48.290;11.460;2024-01-15T05:20:42;18.67;;;7.00;;
36321;SDS011;23564;48.290;11.460;2024-01-15T05:23:08;17.10;;;7.38;;
36321;SDS011;23564;48.290;11.460;2024-01-15T05:25:35;15.98;;;7.65;;
36321;SDS011;23564;48.290;11.460;2024-01-15T05:28:00;18.45;;;8.25;;
36321;SDS011;23564;48.290;11.460;2024-01-15T05:30:26;15.02;;;6.57;;
36321;SDS011;23564;48.290;11.460;2024-01-15T05:32:52;17.42;;;7.68;;
36321;SDS011;23564;48.290;11.460;2024-01-15T05:35:17;16.73;;;6.88;;
36321;SDS011;23564;48.290;11.460;2024-01-15T05:37:43;14.77;;;6.47;;
36321;SDS011;23564;48.290;11.460;2024-01-15T05:40:10;22.38;;;7.65;;
36321;SDS011;23564;48.290;11.460;2024-01-15T05:42:37;19.88;;;7.40;;
36321;SDS011;23564;48.290;11.460;2024-01-15T05:45:03;15.48;;;6.55;;
36321;SDS011;23564;48.290;11.460;2024-01-15T05:47:29;17.23;;;7.38;;
36321;SDS011;23564;48.290;11.460;2024-01-15T05:49:56;21.45;;;7.85;;
36321;SDS011;23564;48.290;11.460;2024-01-15T05:52:22;15.88;;;6.60;;
36321;SDS011;23564;48.290;11.460;2024-01-15T05:54:47;17.40;;;7.00;;
36321;SDS011;23564;48.290;11.460;2024-01-15T05:57:14;16.58;;;7.15;;
36321;SDS011;23564;48.290;11.460;2024-01-15T05:59:39;15.93;;;6.78;;
36321;SDS011;23564;48.290;11.460;2024-01-15T06:02:05;15.73;;;6.95;;
36321;SDS011;23564;48.290;11.460;2024-01-15T06:04:30;19.25;;;7.40;;
36321;SDS011;23564;48.290;11.460;2024-01-15T06:06:56;17.65;;;7.07;;
36321;SDS011;23564;48.290;11.460;2024-01-15T06:09:21;18.63;;;7.90;;
36321;SDS011;23564;48.290;11.460;2024-01-15T06:11:47;16.80;;;7.32;;
36321;SDS011;23564;48.290;11.460;2024-01-15T06:14:13;15.30;;;6.10;;
36321;SDS011;23564;48.290;11.460;2024-01-15T06:16:38;21.98;;;6.32;;
36321;SDS011;23564;48.290;11.460;2024-01-15T06:19:04;13.57;;;5.90;;
36321;SDS011;23564;48.290;11.460;2024-01-15T06:21:29;18.27;;;6.45;;
36321;SDS011;23564;48.290;11.460;2024-01-15T06:23:55;17.73;;;6.05;;
36321;SDS011;23564;48.290;11.460;2024-01-15T06:26:22;15.45;;;6.03;;
36321;SDS011;23564;48.290;11.460;2024-01-15T06:28:47;13.68;;;6.80;;
36321;SDS011;23564;48.290;11.460;2024-01-15T06:31:13;15.50;;;6.47;;
36321;SDS011;23564;48.290;11.460;2024-01-15T06:33:39;13.63;;;5.70;;
36321;SDS011;23564;48.290;11.460;2024-01-15T06:36:05;18.80;;;6.32;;
36321;SDS011;23564;48.290;11.460;2024-01-15T06:38:31;13.65;;;5.40;;
36321;SDS011;23564;48.290;11.460;2024-01-15T06:40:56;12.32;;;5.75;;
36321;SDS011;23564;48.290;11.460;2024-01-15T06:43:22;14.85;;;6.13;;
36321;SDS011;23564;48.290;11.460;2024-01-15T06:45:47;11.38;;;5.82;;
36321;SDS011;23564;48.290;11.460;2024-01-15T06:48:13;16.65;;;6.35;;
36321;SDS011;23564;48.290;11.460;2024-01-15T06:50:41;17.88;;;5.90;;
36321;SDS011;23564;48.290;11.460;2024-01-15T06:53:07;13.82;;;6.70;;
36321;SDS011;23564;48.290;11.460;2024-01-15T06:55:32;15.38;;;6.10;;
36321;SDS011;23564;48.290;11.460;2024-01-15T06:57:58;16.90;;;6.35;;
36321;SDS011;23564;48.290;11.460;2024-01-15T07:00:23;16.80;;;5.95;;
36321;SDS011;23564;48.290;11.460;2024-01-15T07:02:49;14.15;;;6.93;;
36321;SDS011;23564;48.290;11.460;2024-01-15T07:05:15;14.13;;;5.90;;
36321;SDS011;23564;48.290;11.460;2024-01-15T07:07:40;14.05;;;6.28;;
36321;SDS011;23564;48.290;11.460;2024-01-15T07:10:06;17.48;;;6.78;;
36321;SDS011;23564;48.290;11.460;2024-01-15T07:12:32;18.90;;;6.63;;
36321;SDS011;23564;48.290;11.460;2024-01-15T07:14:58;16.98;;;7.00;;
36321;SDS011;23564;48.290;11.460;2024-01-15T07:17:24;16.25;;;6.90;;
36321;SDS011;23564;48.290;11.460;2024-01-15T07:19:49;18.20;;;6.50;;
36321;SDS011;23564;48.290;11.460;2024-01-15T07:22:15;12.57;;;6.22;;
36321;SDS011;23564;48.290;11.460;2024-01-15T07:24:42;16.27;;;6.97;;
36321;SDS011;23564;48.290;11.460;2024-01-15T07:27:08;13.70;;;6.28;;
36321;SDS011;23564;48.290;11.460;2024-01-15T07:29:34;18.85;;;6.35;;
36321;SDS011;23564;48.290;11.460;2024-01-15T07:32:02;15.48;;;6.78;;
36321;SDS011;23564;48.290;11.460;2024-01-15T07:34:28;19.63;;;7.47;;
36321;SDS011;23564;48.290;11.460;2024-01-15T07:36:54;16.58;;;6.07;;
36321;SDS011;23564;48.290;11.460;2024-01-15T07:39:19;15.90;;;7.03;;
36321;SDS011;23564;48.290;11.460;2024-01-15T07:41:45;15.98;;;6.40;;
36321;SDS011;23564;48.290;11.460;2024-01-15T07:44:10;16.33;;;6.85;;
36321;SDS011;23564;48.290;11.460;2024-01-15T07:46:36;20.80;;;7.82;;
36321;SDS011;23564;48.290;11.460;2024-01-15T07:49:02;13.73;;;6.50;;
36321;SDS011;23564;48.290;11.460;2024-01-15T07:51:28;15.93;;;5.75;;
36321;SDS011;23564;48.290;11.460;2024-01-15T07:53:54;16.08;;;6.57;;
36321;SDS011;23564;48.290;11.460;2024-01-15T07:56:22;18.67;;;6.60;;
36321;SDS011;23564;48.290;11.460;2024-01-15T07:58:48;17.40;;;6.13;;
36321;SDS011;23564;48.290;11.460;2024-01-15T08:01:13;16.55;;;6.60;;
36321;SDS011;23564;48.290;11.460;2024-01-15T08:03:39;17.20;;;7.35;;
36321;SDS011;23564;48.290;11.460;2024-01-15T08:06:05;14.75;;;5.60;;
36321;SDS011;23564;48.290;11.460;2024-01-15T08:08:31;13.73;;;5.63;;
36321;SDS011;23564;48.290;11.460;2024-01-15T08:10:56;11.07;;;5.05;;
36321;SDS011;23564;48.290;11.460;2024-01-15T08:13:22;16.88;;;5.32;;
36321;SDS011;23564;48.290;11.460;2024-01-15T08:15:47;15.82;;;6.57;;
36321;SDS011;23564;48.290;11.460;2024-01-15T08:18:13;15.77;;;6.00;;
36321;SDS011;23564;48.290;11.460;2024-01-15T08:20:39;14.63;;;6.88;;
36321;SDS011;23564;48.290;11.460;2024-01-15T08:23:04;13.18;;;6.07;;
36321;SDS011;23564;48.290;11.460;2024-01-15T08:25:30;15.43;;;6.40;;
36321;SDS011;23564;48.290;11.460;2024-01-15T08:27:56;14.02;;;6.03;;
36321;SDS011;23564;48.290;11.460;2024-01-15T08:30:22;14.90;;;6.90;;
36321;SDS011;23564;48.290;11.460;2024-01-15T08:32:52;15.50;;;6.25;;
36321;SDS011;23564;48.290;11.460;2024-01-15T08:35:20;14.32;;;6.50;;
36321;SDS011;23564;48.290;11.460;2024-01-15T08:37:48;15.43;;;6.10;;
36321;SDS011;23564;48.290;11.460;2024-01-15T08:40:14;13.30;;;6.07;;
36321;SDS011;23564;48.290;11.460;2024-01-15T08:42:40;13.93;;;6.30;;
36321;SDS011;23564;48.290;11.460;2024-01-15T08:45:06;12.57;;;5.28;;
36321;SDS011;23564;48.290;11.460;2024-01-15T08:47:32;12.23;;;5.55;;
36321;SDS011;23564;48.290;11.460;2024-01-15T08:49:57;16.83;;;6.68;;
36321;SDS011;23564;48.290;11.460;2024-01-15T08:52:24;12.38;;;6.40;;
36321;SDS011;23564;48.290;11.460;2024-01-15T08:54:49;14.85;;;5.72;;
36321;SDS011;23564;48.290;11.460;2024-01-15T08:57:15;12.00;;;4.93;;
36321;SDS011;23564;48.290;11.460;2024-01-15T08:59:41;10.50;;;4.65;;
36321;SDS011;23564;48.290;11.460;2024-01-15T09:02:07;9.18;;;4.35;;
36321;SDS011;23564;48.290;11.460;2024-01-15T09:04:33;12.43;;;4.80;;
36321;SDS011;23564;48.290;11.460;2024-01-15T09:06:59;11.85;;;5.05;;
36321;SDS011;23564;48.290;11.460;2024-01-15T09:09:24;14.90;;;5.72;;
36321;SDS011;23564;48.290;11.460;2024-01-15T09:11:50;16.38;;;5.55;;
36321;SDS011;23564;48.290;11.460;2024-01-15T09:14:16;14.38;;;5.88;;
36321;SDS011;23564;48.290;11.460;2024-01-15T09:16:42;14.38;;;5.85;;
36321;SDS011;23564;48.290;11.460;2024-01-15T09:19:08;16.30;;;6.85;;
36321;SDS011;23564;48.290;11.460;2024-01-15T09:21:33;12.38;;;6.40;;
36321;SDS011;23564;48.290;11.460;2024-01-15T09:23:59;15.48;;;6.72;;
36321;SDS011;23564;48.290;11.460;2024-01-15T09:26:24;13.32;;;6.15;;
36321;SDS011;23564;48.290;11.460;2024-01-15T09:28:50;13.15;;;6.38;;
36321;SDS011;23564;48.290;11.460;2024-01-15T09:31:16;14.23;;;6.65;;
36321;SDS011;23564;48.290;11.460;2024-01-15T09:33:42;13.15;;;5.63;;
36321;SDS011;23564;48.290;11.460;2024-01-15T09:36:09;16.98;;;6.80;;
36321;SDS011;23564;48.290;11.460;2024-01-15T09:38:34;16.35;;;6.25;;
36321;SDS011;23564;48.290;11.460;2024-01-15T09:41:00;18.80;;;7.15;;
36321;SDS011;23564;48.290;11.460;2024-01-15T09:43:25;18.30;;;6.90;;
36321;SDS011;23564;48.290;11.460;2024-01-15T09:45:51;12.82;;;5.93;;
36321;SDS011;23564;48.290;11.460;2024-01-15T09:48:18;14.00;;;6.72;;
36321;SDS011;23564;48.290;11.460;2024-01-15T09:50:44;14.80;;;6.53;;
36321;SDS011;23564;48.290;11.460;2024-01-15T09:53:10;18.15;;;6.50;;
36321;SDS011;23564;48.290;11.460;2024-01-15T09:55:36;14.20;;;6.07;;
36321;SDS011;23564;48.290;11.460;2024-01-15T09:58:03;19.52;;;7.25;;
36321;SDS011;23564;48.290;11.460;2024-01-15T10:00:29;16.88;;;6.55;;
36321;SDS011;23564;48.290;11.460;2024-01-15T10:02:58;15.98;;;6.18;;
36321;SDS011;23564;48.290;11.460;2024-01-15T10:05:25;14.77;;;6.22;;
36321;SDS011;23564;48.290;11.460;2024-01-15T10:07:51;15.98;;;6.70;;
36321;SDS011;23564;48.290;11.460;2024-01-15T10:10:19;13.95;;;6.13;;
36321;SDS011;23564;48.290;11.460;2024-01-15T10:12:46;15.88;;;6.10;;
36321;SDS011;23564;48.290;11.460;2024-01-15T10:15:12;16.88;;;6.28;;
36321;SDS011;23564;48.290;11.460;2024-01-15T10:17:38;13.10;;;5.78;;
36321;SDS011;23564;48.290;11.460;2024-01-15T10:20:14;14.70;;;6.15;;
36321;SDS011;23564;48.290;11.460;2024-01-15T10:22:42;12.73;;;5.95;;
36321;SDS011;23564;48.290;11.460;2024-01-15T10:25:11;10.02;;;4.78;;
36321;SDS011;23564;48.290;11.460;2024-01-15T10:27:38;11.07;;;5.05;;
36321;SDS011;23564;48.290;11.460;2024-01-15T10:30:05;12.30;;;4.95;;
36321;SDS011;23564;48.290;11.460;2024-01-15T10:32:31;16.00;;;5.70;;
36321;SDS011;23564;48.290;11.460;2024-01-15T10:34:57;11.10;;;4.30;;
36321;SDS011;23564;48.290;11.460;2024-01-15T10:37:24;15.25;;;5.90;;
36321;SDS011;23564;48.290;11.460;2024-01-15T10:39:49;16.63;;;6.68;;
36321;SDS011;23564;48.290;11.460;2024-01-15T10:42:15;11.45;;;6.00;;
36321;SDS011;23564;48.290;11.460;2024-01-15T10:44:43;10.85;;;5.25;;
36321;SDS011;23564;48.290;11.460;2024-01-15T10:47:09;16.27;;;5.93;;
36321;SDS011;23564;48.290;11.460;2024-01-15T10:49:35;12.05;;;5.60;;
36321;SDS011;23564;48.290;11.460;2024-01-15T10:52:02;17.15;;;5.95;;
36321;SDS011;23564;48.290;11.460;2024-01-15T10:54:28;14.43;;;5.63;;
36321;SDS011;23564;48.290;11.460;2024-01-15T10:56:55;15.52;;;5.80;;
36321;SDS011;23564;48.290;11.460;2024-01-15T10:59:21;11.65;;;5.13;;
36321;SDS011;23564;48.290;11.460;2024-01-15T11:01:48;12.15;;;5.03;;
36321;SDS011;23564;48.290;11.460;2024-01-15T11:04:14;11.82;;;4.65;;
36321;SDS011;23564;48.290;11.460;2024-01-15T11:06:44;12.57;;;5.28;;
36321;SDS011;23564;48.290;11.460;2024-01-15T11:09:12;10.70;;;5.25;;
36321;SDS011;23564;48.290;11.460;2024-01-15T11:11:44;10.07;;;5.30;;
36321;SDS011;23564;48.290;11.460;2024-01-15T11:14:32;11.23;;;4.78;;
36321;SDS011;23564;48.290;11.460;2024-01-15T11:17:03;10.45;;;4.55;;
36321;SDS011;23564;48.290;11.460;2024-01-15T11:19:42;12.57;;;5.53;;
36321;SDS011;23564;48.290;11.460;2024-01-15T11:22:09;11.07;;;4.97;;
36321;SDS011;23564;48.290;11.460;2024-01-15T11:24:54;11.25;;;4.63;;
36321;SDS011;23564;48.290;11.460;2024-01-15T11:27:39;9.48;;;4.70;;
36321;SDS011;23564;48.290;11.460;2024-01-15T11:30:09;11.85;;;4.80;;
36321;SDS011;23564;48.290;11.460;2024-01-15T11:32:36;9.55;;;4.47;;
36321;SDS011;23564;48.290;11.460;2024-01-15T11:35:02;8.88;;;4.45;;
36321;SDS011;23564;48.290;11.460;2024-01-15T11:37:29;10.80;;;4.63;;
36321;SDS011;23564;48.290;11.460;2024-01-15T11:40:15;12.45;;;4.60;;
36321;SDS011;23564;48.290;11.460;2024-01-15T11:42:47;25.75;;;10.55;;
36321;SDS011;23564;48.290;11.460;2024-01-15T11:45:14;10.60;;;4.68;;
36321;SDS011;23564;48.290;11.460;2024-01-15T11:50:44;11.07;;;5.20;;
36321;SDS011;23564;48.290;11.460;2024-01-15T11:53:27;14.90;;;5.00;;
36321;SDS011;23564;48.290;11.460;2024-01-15T11:56:02;12.55;;;4.70;;
36321;SDS011;23564;48.290;11.460;2024-01-15T11:58:31;9.88;;;4.78;;
36321;SDS011;23564;48.290;11.460;2024-01-15T12:00:56;9.15;;;4.50;;
36321;SDS011;23564;48.290;11.460;2024-01-15T12:03:23;10.45;;;5.05;;
36321;SDS011;23564;48.290;11.460;2024-01-15T12:05:49;11.45;;;5.05;;
36321;SDS011;23564;48.290;11.460;2024-01-15T12:08:20;9.85;;;4.57;;
36321;SDS011;23564;48.290;11.460;2024-01-15T12:10:50;12.90;;;5.18;;
36321;SDS011;23564;48.290;11.460;2024-01-15T12:13:16;10.68;;;4.15;;
36321;SDS011;23564;48.290;11.460;2024-01-15T12:15:43;11.25;;;5.30;;
36321;SDS011;23564;48.290;11.460;2024-01-15T12:18:11;17.48;;;5.22;;
36321;SDS011;23564;48.290;11.460;2024-01-15T12:20:39;9.50;;;4.40;;
36321;SDS011;23564;48.290;11.460;2024-01-15T12:23:05;9.27;;;4.32;;
36321;SDS011;23564;48.290;11.460;2024-01-15T12:25:31;13.50;;;5.20;;
36321;SDS011;23564;48.290;11.460;2024-01-15T12:27:58;12.05;;;4.55;;
36321;SDS011;23564;48.290;11.460;2024-01-15T12:30:28;11.02;;;4.63;;
36321;SDS011;23564;48.290;11.460;2024-01-15T12:32:56;10.40;;;4.63;;
36321;SDS011;23564;48.290;11.460;2024-01-15T12:35:23;9.80;;;4.38;;
36321;SDS011;23564;48.290;11.460;2024-01-15T12:37:51;11.02;;;4.13;;
36321;SDS011;23564;48.290;11.460;2024-01-15T12:40:20;10.68;;;4.78;;
36321;SDS011;23564;48.290;11.460;2024-01-15T12:42:46;9.57;;;4.35;;
36321;SDS011;23564;48.290;11.460;2024-01-15T12:45:12;8.35;;;4.10;;
36321;SDS011;23564;48.290;11.460;2024-01-15T12:47:38;9.95;;;4.10;;
36321;SDS011;23564;48.290;11.460;2024-01-15T12:50:08;12.85;;;4.38;;
36321;SDS011;23564;48.290;11.460;2024-01-15T12:52:35;10.05;;;4.57;;
36321;SDS011;23564;48.290;11.460;2024-01-15T12:55:03;9.93;;;4.25;;
36321;SDS011;23564;48.290;11.460;2024-01-15T12:57:30;10.88;;;4.22;;
36321;SDS011;23564;48.290;11.460;2024-01-15T12:59:55;9.90;;;4.25;;
36321;SDS011;23564;48.290;11.460;2024-01-15T13:02:21;12.75;;;4.53;;
36321;SDS011;23564;48.290;11.460;2024-01-15T13:04:47;8.80;;;4.90;;
36321;SDS011;23564;48.290;11.460;2024-01-15T13:07:13;7.75;;;4.28;;
36321;SDS011;23564;48.290;11.460;2024-01-15T13:09:38;7.47;;;4.15;;
36321;SDS011;23564;48.290;11.460;2024-01-15T13:12:04;8.15;;;3.90;;
36321;SDS011;23564;48.290;11.460;2024-01-15T13:14:30;9.77;;;4.22;;
36321;SDS011;23564;48.290;11.460;2024-01-15T13:16:56;9.35;;;4.00;;
36321;SDS011;23564;48.290;11.460;2024-01-15T13:19:23;8.45;;;4.10;;
36321;SDS011;23564;48.290;11.460;2024-01-15T13:21:49;13.73;;;4.72;;
36321;SDS011;23564;48.290;11.460;2024-01-15T13:24:18;11.93;;;4.60;;
36321;SDS011;23564;48.290;11.460;2024-01-15T13:26:44;12.57;;;4.93;;
36321;SDS011;23564;48.290;11.460;2024-01-15T13:29:10;8.32;;;4.00;;
36321;SDS011;23564;48.290;11.460;2024-01-15T13:31:35;13.45;;;5.18;;
36321;SDS011;23564;48.290;11.460;2024-01-15T13:34:01;12.32;;;5.03;;
36321;SDS011;23564;48.290;11.460;2024-01-15T13:36:28;14.00;;;5.30;;
36321;SDS011;23564;48.290;11.460;2024-01-15T13:38:54;9.23;;;4.68;;
36321;SDS011;23564;48.290;11.460;2024-01-15T13:41:20;9.20;;;4.50;;
36321;SDS011;23564;48.290;11.460;2024-01-15T13:43:55;9.88;;;4.88;;
36321;SDS011;23564;48.290;11.460;2024-01-15T13:46:23;10.20;;;4.30;;
36321;SDS011;23564;48.290;11.460;2024-01-15T13:48:49;10.60;;;4.50;;
36321;SDS011;23564;48.290;11.460;2024-01-15T13:51:15;14.93;;;4.50;;
36321;SDS011;23564;48.290;11.460;2024-01-15T13:53:40;12.75;;;5.25;;
36321;SDS011;23564;48.290;11.460;2024-01-15T13:56:06;11.70;;;5.95;;
36321;SDS011;23564;48.290;11.460;2024-01-15T13:58:33;15.10;;;5.78;;
36321;SDS011;23564;48.290;11.460;2024-01-15T14:01:01;10.57;;;4.90;;
36321;SDS011;23564;48.290;11.460;2024-01-15T14:03:31;11.13;;;5.50;;
36321;SDS011;23564;48.290;11.460;2024-01-15T14:05:56;9.88;;;5.40;;
36321;SDS011;23564;48.290;11.460;2024-01-15T14:08:22;9.85;;;4.93;;
36321;SDS011;23564;48.290;11.460;2024-01-15T14:10:48;10.75;;;4.63;;
36321;SDS011;23564;48.290;11.460;2024-01-15T14:13:13;15.65;;;4.57;;
36321;SDS011;23564;48.290;11.460;2024-01-15T14:15:39;10.98;;;4.38;;
36321;SDS011;23564;48.290;11.460;2024-01-15T14:18:05;15.73;;;4.55;;
36321;SDS011;23564;48.290;11.460;2024-01-15T14:20:31;13.40;;;4.57;;